| time (UTC) | temp C | wind direction | speed KPH | gust KPH | rain 1hr cm | rain 24hr cm | rain mn cm | humidity % | barometer mb |
| 20260508114518 | 10 | 313 | 17.7 | 43.5 | 0.03 | 1.88 | 1.04 | 1 | 998.0 |
| 20260508113013 | 10 | 266 | 17.7 | 41.8 | 0.03 | 1.88 | 1.04 | 1 | 998.0 |
| 20260508111513 | 10 | 278 | 17.7 | 38.6 | 0.03 | 1.85 | 1.02 | 1 | 998.0 |
| 20260508110004 | 10 | 284 | 19.3 | 38.6 | 0.03 | 1.85 | 1.02 | 1 | 997.7 |
| 20260508104623 | 10 | 285 | 12.9 | 41.8 | 0.03 | 2.31 | 1.02 | 1 | 997.4 |
| 20260508103056 | 10 | 355 | 14.5 | 45.1 | 0.05 | 2.31 | 1.02 | 1 | 997.1 |
| 20260508101552 | 11 | 297 | 17.7 | 41.8 | 0.08 | 2.31 | 0.99 | 1 | 996.8 |
| 20260508100048 | 11 | 271 | 12.9 | 43.5 | 0.08 | 2.31 | 0.99 | 1 | 996.5 |
| 20260508094547 | 11 | 292 | 20.9 | 41.8 | 0.08 | 2.57 | 0.99 | 1 | 996.4 |
| 20260508093038 | 11 | 242 | 19.3 | 41.8 | 0.05 | 2.51 | 0.97 | 1 | 996.1 |
| 20260508091534 | 11 | 309 | 24.1 | 48.3 | 0.05 | 2.49 | 0.91 | 1 | 996.0 |
| 20260508090032 | 11 | 299 | 20.9 | 41.8 | 0.05 | 2.49 | 0.91 | 1 | 995.8 |
| 20260508084525 | 12 | 331 | 22.5 | 41.8 | 0.10 | 2.69 | 0.91 | 1 | 995.6 |
| 20260508083021 | 12 | 292 | 22.5 | 43.5 | 0.08 | 2.69 | 0.89 | 1 | 995.3 |
| 20260508081516 | 12 | 342 | 20.9 | 38.6 | 0.36 | 2.67 | 0.89 | 1 | 995.3 |
| 20260508080015 | 12 | 293 | 19.3 | 46.7 | 0.58 | 2.64 | 0.86 | 1 | 995.1 |
| 20260508074507 | 12 | 282 | 20.9 | 46.7 | 0.61 | 3.10 | 0.81 | 1 | 994.9 |
| 20260508073003 | 12 | 317 | 16.1 | 29.0 | 0.71 | 3.10 | 0.81 | 1 | 994.7 |
| 20260508071603 | 12 | 59 | 6.4 | 19.3 | 0.41 | 2.79 | 0.51 | 1 | 994.4 |
| 20260508070139 | 12 | 282 | 3.2 | 14.5 | 0.15 | 2.57 | 0.28 | 1 | 995.1 |
| 20260508064605 | 12 | 47 | 1.6 | 14.5 | 0.08 | 3.48 | 0.20 | 1 | 995.9 |
| 20260508063048 | 12 | 346 | 4.8 | 16.1 | 0.00 | 3.40 | 0.13 | 1 | 996.0 |
| 20260508061547 | 12 | 313 | 3.2 | 14.5 | 0.05 | 3.40 | 0.13 | 1 | 996.4 |
| 20260508060036 | 12 | 323 | 1.6 | 14.5 | 0.08 | 3.40 | 0.13 | 1 | 996.8 |
| 20260508054532 | 12 | 85 | 3.2 | 16.1 | 0.10 | 3.58 | 0.13 | 1 | 996.5 |
| 20260508053027 | 12 | 319 | 0.0 | 9.7 | 0.13 | 3.58 | 0.13 | 1 | 996.4 |
| 20260508051523 | 12 | 290 | 3.2 | 16.1 | 0.05 | 3.53 | 0.05 | 1 | 996.9 |
| 20260508050021 | 12 | 302 | 6.4 | 11.3 | 0.05 | 3.51 | 0.05 | 1 | 996.6 |
| 20260508044514 | 13 | 345 | 3.2 | 11.3 | 0.03 | 3.51 | 0.03 | 1 | 997.1 |
| 20260508043009 | 13 | 302 | 1.6 | 17.7 | 0.00 | 3.48 | 0.00 | 1 | 996.9 |
| 20260508041507 | 13 | 316 | 4.8 | 22.5 | 0.00 | 3.48 | 0.00 | 1 | 997.0 |
| 20260508040000 | 13 | 281 | 6.4 | 20.9 | 0.00 | 3.48 | 0.00 | 1 | 997.3 |
| 20260508034557 | 13 | 301 | 4.8 | 17.7 | 0.00 | 3.48 | 0.00 | 1 | 997.6 |
| 20260508033051 | 13 | 307 | 3.2 | 16.1 | 0.00 | 3.48 | 0.00 | 1 | 997.0 |
| 20260508031553 | 14 | 296 | 6.4 | 19.3 | 0.00 | 3.48 | 0.00 | 10 | 996.4 |
| 20260508030052 | 14 | 317 | 14.5 | 25.7 | 0.00 | 3.48 | 0.00 | 20 | 996.4 |
| 20260508024539 | 15 | 241 | 9.7 | 22.5 | 0.00 | 3.48 | 3.48 | 29 | 995.8 |
| 20260508023037 | 15 | 327 | 12.9 | 30.6 | 0.00 | 3.48 | 3.48 | 28 | 996.9 |
| 20260508021533 | 15 | 279 | 12.9 | 32.2 | 0.00 | 3.48 | 3.48 | 20 | 996.9 |
| 20260508020025 | 15 | 288 | 14.5 | 35.4 | 0.00 | 3.48 | 3.48 | 20 | 997.2 |
| 20260508014521 | 15 | 256 | 9.7 | 20.9 | 0.00 | 3.48 | 3.48 | 20 | 997.2 |
| 20260508013016 | 15 | 248 | 11.3 | 24.1 | 0.00 | 3.48 | 3.48 | 17 | 997.5 |
| 20260508011512 | 15 | 292 | 12.9 | 30.6 | 0.00 | 3.48 | 3.48 | 11 | 997.6 |
| 20260508010012 | 15 | 296 | 12.9 | 32.2 | 0.00 | 3.48 | 3.48 | 2 | 998.1 |
| 20260508004504 | 15 | 294 | 14.5 | 35.4 | 0.00 | 3.48 | 3.48 | 1 | 998.9 |
| 20260508003100 | 15 | 286 | 17.7 | 37.0 | 0.00 | 3.48 | 3.48 | 1 | 998.9 |
| 20260508001556 | 15 | 278 | 17.7 | 40.2 | 0.00 | 3.48 | 3.48 | 1 | 998.2 |
| 20260508000051 | 16 | 297 | 12.9 | 33.8 | 0.00 | 3.48 | 3.48 | 1 | 998.1 |
| 20260507234548 | 16 | 286 | 11.3 | 24.1 | 0.00 | 3.48 | 3.48 | 1 | 998.8 |
| 20260507233042 | 16 | 280 | 16.1 | 45.1 | 0.00 | 3.48 | 3.48 | 1 | 999.3 |
| 20260507231538 | 16 | 291 | 16.1 | 32.2 | 0.00 | 3.48 | 3.48 | 1 | 999.3 |
| 20260507230033 | 16 | 303 | 16.1 | 32.2 | 0.00 | 3.48 | 3.48 | 1 | 999.6 |
| 20260507224529 | 16 | 258 | 4.8 | 20.9 | 0.00 | 3.48 | 3.48 | 1 | 999.2 |
| 20260507223024 | 16 | 289 | 8.0 | 24.1 | 0.00 | 3.48 | 3.48 | 1 | 998.5 |
| 20260507221520 | 16 | 300 | 11.3 | 20.9 | 0.00 | 3.48 | 3.48 | 1 | 998.6 |
| 20260507220015 | 16 | 280 | 9.7 | 20.9 | 0.00 | 3.48 | 3.48 | 1 | 998.4 |
| 20260507214511 | 16 | 257 | 8.0 | 22.5 | 0.00 | 3.48 | 3.48 | 1 | 997.5 |
| 20260507213009 | 15 | 267 | 11.3 | 22.5 | 0.00 | 3.48 | 3.48 | 1 | 997.2 |
| 20260507211502 | 15 | 268 | 8.0 | 20.9 | 0.00 | 3.48 | 3.48 | 1 | 997.8 |
| 20260507210058 | 15 | 286 | 9.7 | 19.3 | 0.00 | 3.48 | 3.48 | 1 | 998.0 |
| 20260507204600 | 15 | 282 | 14.5 | 24.1 | 0.00 | 3.48 | 3.48 | 1 | 998.1 |
| 20260507203049 | 15 | 265 | 9.7 | 25.7 | 0.00 | 3.48 | 3.48 | 1 | 998.5 |
| 20260507201550 | 16 | 263 | 11.3 | 29.0 | 0.00 | 3.48 | 3.48 | 1 | 998.9 |
| 20260507200048 | 16 | 305 | 8.0 | 20.9 | 0.00 | 3.48 | 3.48 | 1 | 999.2 |
| 20260507194545 | 16 | 298 | 8.0 | 16.1 | 0.00 | 3.48 | 3.48 | 1 | 998.9 |
| 20260507193033 | 16 | 296 | 6.4 | 17.7 | 0.00 | 3.48 | 3.48 | 1 | 998.9 |
| 20260507191530 | 16 | 349 | 0.0 | 8.0 | 0.00 | 3.48 | 3.48 | 1 | 997.6 |
| 20260507190022 | 16 | 14 | 3.2 | 14.5 | 0.00 | 3.48 | 3.48 | 1 | 997.7 |
| 20260507184518 | 16 | 358 | 0.0 | 8.0 | 0.00 | 3.48 | 3.48 | 1 | 998.6 |
| 20260507183020 | 16 | 287 | 0.0 | 6.4 | 0.00 | 3.48 | 3.48 | 1 | 997.9 |
| 20260507181508 | 16 | 286 | 0.0 | 9.7 | 0.00 | 3.48 | 3.48 | 1 | 997.8 |
| 20260507180004 | 16 | 28 | 6.4 | 17.7 | 0.03 | 3.48 | 3.48 | 1 | 998.5 |
| 20260507174600 | 16 | 313 | 3.2 | 12.9 | 0.05 | 3.48 | 3.48 | 1 | 998.4 |
| 20260507173057 | 16 | 293 | 0.0 | 11.3 | 0.05 | 3.48 | 3.48 | 1 | 998.6 |
| 20260507171552 | 16 | 331 | 1.6 | 9.7 | 0.05 | 3.48 | 3.48 | 1 | 998.9 |
| 20260507170050 | 16 | 290 | 3.2 | 11.3 | 0.05 | 3.45 | 3.45 | 1 | 998.8 |
| 20260507164556 | 16 | 57 | 0.0 | 8.0 | 0.08 | 3.45 | 3.43 | 1 | 998.1 |
| 20260507163039 | 16 | 322 | 3.2 | 14.5 | 0.15 | 3.45 | 3.43 | 1 | 999.6 |
| 20260507161539 | 16 | 318 | 3.2 | 9.7 | 0.15 | 3.43 | 3.43 | 1 | 999.8 |
| 20260507160034 | 16 | 12 | 0.0 | 9.7 | 0.20 | 3.43 | 3.40 | 1 | 999.8 |
| 20260507154525 | 16 | 28 | 1.6 | 9.7 | 0.23 | 3.38 | 3.35 | 1 | 1000.3 |
| 20260507153021 | 16 | 293 | 4.8 | 12.9 | 0.25 | 3.33 | 3.30 | 1 | 1000.3 |
| 20260507151517 | 16 | 289 | 4.8 | 11.3 | 0.28 | 3.30 | 3.28 | 1 | 1000.2 |
| 20260507150014 | 16 | 321 | 3.2 | 12.9 | 0.25 | 3.23 | 3.20 | 1 | 1000.7 |
| 20260507144510 | 16 | 327 | 6.4 | 17.7 | 0.23 | 3.15 | 3.12 | 1 | 1001.1 |
| 20260507143003 | 16 | 296 | 8.0 | 16.1 | 0.18 | 3.05 | 3.05 | 1 | 1001.0 |
| 20260507141623 | 16 | 280 | 6.4 | 20.9 | 0.15 | 3.02 | 3.00 | 1 | 1001.2 |
| 20260507140054 | 16 | 284 | 14.5 | 30.6 | 0.08 | 2.97 | 2.92 | 1 | 1001.4 |
| 20260507134550 | 16 | 288 | 6.4 | 20.9 | 0.03 | 2.87 | 2.84 | 1 | 1000.0 |
| 20260507133046 | 16 | 336 | 11.3 | 37.0 | 0.00 | 2.84 | 2.84 | 1 | 1000.1 |
| 20260507131551 | 16 | 253 | 1.6 | 8.0 | 0.00 | 2.84 | 2.84 | 1 | 1000.1 |
| 20260507130041 | 16 | 55 | 3.2 | 9.7 | 0.05 | 2.84 | 2.84 | 1 | 998.9 |
| 20260507124536 | 16 | 60 | 6.4 | 16.1 | 0.10 | 2.84 | 2.84 | 1 | 998.3 |
| 20260507123029 | 16 | 78 | 8.0 | 20.9 | 0.13 | 2.84 | 2.84 | 1 | 998.1 |
| 20260507121523 | 16 | 60 | 9.7 | 29.0 | 0.15 | 2.84 | 2.84 | 1 | 996.4 |
| 20260507120019 | 16 | 76 | 8.0 | 19.3 | 0.15 | 2.84 | 2.82 | 1 | 997.0 |